Time;durP1;ratioP1;P1;durP2;ratioP2;P2;SDS_P1;SDS_P2;PMS_P1;PMS_P2;Temp;Humidity;BMP_temperature;BMP_pressure;BME280_temperature;BME280_humidity;BME280_pressure;Samples;Min_cycle;Max_cycle;Signal;HPM_P1;HPM_P2
2023/09/04 00:00:05;;;;;;;3.63;2.40;;;15.10;99.90;;;14.89;100.00;98253.72;5019243;28;20052;-38
2023/09/04 00:02:31;;;;;;;3.78;2.40;;;15.10;99.90;;;14.88;100.00;98257.31;5013363;28;20034;-37
2023/09/04 00:04:57;;;;;;;2.70;2.40;;;15.00;99.90;;;14.88;100.00;98251.13;5011192;28;20079;-37
2023/09/04 00:07:23;;;;;;;2.90;2.47;;;15.00;99.90;;;14.85;100.00;98245.94;5013408;28;20903;-37
2023/09/04 00:09:50;;;;;;;2.88;2.58;;;15.00;99.90;;;14.84;100.00;98244.19;5015037;28;20079;-39
2023/09/04 00:12:15;;;;;;;3.25;2.70;;;15.00;99.90;;;14.83;100.00;98246.00;5015082;28;20037;-39
2023/09/04 00:14:41;;;;;;;2.70;2.40;;;15.00;99.90;;;14.81;100.00;98234.56;5019282;28;20036;-38
2023/09/04 00:17:07;;;;;;;4.32;2.42;;;15.00;99.90;;;14.82;100.00;98244.28;5010117;28;20525;-39
2023/09/04 00:19:34;;;;;;;2.95;2.40;;;15.00;99.90;;;14.80;100.00;98240.78;5008851;28;20038;-38
2023/09/04 00:21:59;;;;;;;3.55;2.50;;;15.00;99.90;;;14.79;100.00;98235.56;5006009;28;20609;-40
2023/09/04 00:24:26;;;;;;;3.42;2.63;;;15.00;99.90;;;14.76;100.00;98227.72;5012083;28;20486;-38
2023/09/04 00:26:52;;;;;;;2.75;2.17;;;14.90;99.90;;;14.66;100.00;98217.47;5016024;28;20397;-41
2023/09/04 00:29:17;;;;;;;5.10;2.60;;;14.90;99.90;;;14.74;100.00;98233.09;5016040;28;20706;-40
2023/09/04 00:31:43;;;;;;;2.65;2.40;;;14.90;99.90;;;14.74;100.00;98233.09;5005435;28;20037;-39
2023/09/04 00:34:09;;;;;;;3.58;2.95;;;14.90;99.90;;;14.66;100.00;98217.47;5006217;28;20037;-39
2023/09/04 00:36:35;;;;;;;3.78;2.53;;;14.90;99.90;;;14.73;100.00;98233.16;5013784;28;20040;-40
2023/09/04 00:39:00;;;;;;;4.20;2.25;;;14.90;99.90;;;14.70;100.00;98221.72;5008654;28;21660;-39
2023/09/04 00:41:26;;;;;;;4.00;2.30;;;14.90;99.90;;;14.65;100.00;98221.06;5009757;28;20152;-38
2023/09/04 00:43:52;;;;;;;3.10;2.33;;;14.80;99.90;;;14.62;100.00;98228.28;5009563;28;20675;-41
2023/09/04 00:46:18;;;;;;;3.65;2.50;;;14.80;99.90;;;14.57;100.00;98232.88;5009183;28;20037;-38
2023/09/04 00:48:45;;;;;;;3.85;2.75;;;14.70;99.90;;;14.52;100.00;98225.97;5014716;28;20122;-38
2023/09/04 00:51:11;;;;;;;3.85;2.63;;;14.70;99.90;;;14.48;100.00;98213.75;5015078;28;20029;-38
2023/09/04 00:53:37;;;;;;;3.80;2.70;;;14.70;99.90;;;14.45;100.00;98208.56;5012169;28;20044;-39
2023/09/04 00:56:05;;;;;;;4.03;2.83;;;14.60;99.90;;;14.40;100.00;98201.69;5048279;28;20079;-39
2023/09/04 00:58:33;;;;;;;3.75;2.60;;;14.60;99.90;;;14.37;100.00;98209.78;5045876;28;20033;-40
2023/09/04 01:01:01;;;;;;;4.43;2.88;;;14.50;99.90;;;14.36;100.00;98208.06;5007089;28;20076;-39
2023/09/04 01:03:29;;;;;;;3.30;2.83;;;14.50;99.90;;;14.32;100.00;98208.16;5016289;28;20022;-39
2023/09/04 01:05:55;;;;;;;4.45;2.65;;;14.50;99.90;;;14.31;100.00;98214.38;5017398;28;20056;-39
2023/09/04 01:08:21;;;;;;;3.95;2.85;;;14.50;99.90;;;14.28;100.00;98211.00;5013649;28;20063;-39
2023/09/04 01:11:02;;;;;;;5.43;3.10;;;14.50;99.90;;;14.35;100.00;98222.25;5014284;28;20037;-39
2023/09/04 01:13:41;;;;;;;3.58;2.47;;;14.50;99.90;;;14.33;100.00;98220.50;5020396;28;20029;-39
2023/09/04 01:16:07;;;;;;;5.00;2.88;;;14.50;99.90;;;14.30;100.00;98218.00;5012954;28;20469;-38
2023/09/04 01:18:34;;;;;;;5.60;2.80;;;14.50;99.90;;;14.26;100.00;98213.69;5016107;28;20021;-38
2023/09/04 01:21:05;;;;;;;2.95;2.40;;;14.50;99.90;;;14.26;100.00;98219.00;5012575;28;20037;-40
2023/09/04 01:23:32;;;;;;;5.15;3.00;;;14.40;99.90;;;14.23;100.00;98205.00;5016809;28;20078;-38
2023/09/04 01:26:19;;;;;;;4.15;2.90;;;14.40;99.90;;;14.15;100.00;98199.13;5019632;28;20415;-39
2023/09/04 01:29:08;;;;;;;3.72;2.53;;;14.40;99.90;;;14.20;100.00;98215.75;5019738;28;20775;-40
2023/09/04 01:31:48;;;;;;;5.25;2.67;;;14.40;99.90;;;14.19;100.00;98212.22;5022013;28;20156;-39
2023/09/04 01:34:25;;;;;;;3.85;3.05;;;14.40;99.90;;;14.18;100.00;98207.84;5018087;28;20274;-40
2023/09/04 01:36:53;;;;;;;3.90;3.00;;;14.40;99.90;;;14.15;100.00;98210.59;5022509;28;20032;-39
2023/09/04 01:39:21;;;;;;;3.30;2.83;;;14.30;99.90;;;14.13;100.00;98208.00;5020156;28;20517;-40
2023/09/04 01:41:46;;;;;;;3.28;2.97;;;14.30;99.90;;;13.97;100.00;98187.44;5011643;28;20048;-38
2023/09/04 01:44:14;;;;;;;3.78;2.80;;;14.30;99.90;;;14.10;100.00;98208.16;5020640;28;20017;-39
2023/09/04 01:46:40;;;;;;;5.60;2.92;;;14.30;99.90;;;14.09;100.00;98205.56;5012839;28;20083;-37
2023/09/04 01:49:07;;;;;;;3.72;2.78;;;14.30;99.90;;;14.06;100.00;98198.56;5019051;28;20033;-38
2023/09/04 01:51:33;;;;;;;6.82;2.92;;;14.30;99.90;;;14.03;100.00;98205.78;5013796;28;21525;-39
2023/09/04 01:53:59;;;;;;;5.65;3.05;;;14.20;99.90;;;14.03;100.00;98208.41;5014132;28;20029;-39
2023/09/04 01:56:24;;;;;;;4.55;3.30;;;14.20;99.90;;;14.01;100.00;98210.28;5018306;28;20052;-40
2023/09/04 01:58:50;;;;;;;4.93;3.38;;;14.20;99.90;;;14.00;100.00;98214.72;5009189;28;20103;-39
2023/09/04 02:01:16;;;;;;;3.20;2.90;;;14.20;99.90;;;13.98;100.00;98218.34;5014515;28;20041;-39
2023/09/04 02:03:56;;;;;;;3.65;3.08;;;14.20;99.90;;;13.87;100.00;98200.16;4994403;28;20033;-41
2023/09/04 02:06:28;;;;;;;4.75;3.10;;;14.20;99.90;;;13.96;100.00;98209.56;5006930;28;20029;-38
2023/09/04 02:08:54;;;;;;;5.40;3.22;;;14.10;99.90;;;13.93;100.00;98211.44;5015793;28;20037;-40
2023/09/04 02:11:19;;;;;;;3.75;2.95;;;14.10;99.90;;;13.90;100.00;98221.28;5019406;28;20059;-39
2023/09/04 02:13:45;;;;;;;3.97;3.15;;;14.10;99.90;;;13.79;100.00;98200.47;5020225;28;20029;-40
2023/09/04 02:16:12;;;;;;;4.30;3.13;;;14.10;99.90;;;13.87;100.00;98216.97;5012789;28;20083;-38
2023/09/04 02:18:38;;;;;;;5.38;3.15;;;14.10;99.90;;;13.87;100.00;98218.72;5013046;28;20052;-39
2023/09/04 02:21:05;;;;;;;4.75;3.00;;;14.10;99.90;;;13.86;100.00;98217.03;5014140;28;20378;-38
2023/09/04 02:23:31;;;;;;;4.63;3.58;;;14.00;99.90;;;13.79;100.00;98196.97;5013935;28;20321;-39
2023/09/04 02:25:57;;;;;;;4.43;3.22;;;14.10;99.90;;;13.82;100.00;98208.31;5019563;28;20178;-39
2023/09/04 02:28:22;;;;;;;5.32;3.38;;;14.00;99.90;;;13.82;100.00;98210.97;5013868;28;20490;-39
2023/09/04 02:30:48;;;;;;;3.80;3.20;;;14.00;99.90;;;13.81;100.00;98201.28;5015658;28;20172;-41
2023/09/04 02:33:14;;;;;;;5.13;3.47;;;14.00;99.90;;;13.82;100.00;98200.38;5014140;28;20041;-42
2023/09/04 02:35:40;;;;;;;4.43;3.47;;;14.00;99.90;;;13.82;100.00;98207.44;5010483;28;20073;-38
2023/09/04 02:38:05;;;;;;;4.50;3.78;;;14.00;99.90;;;13.82;100.00;98207.44;5014959;28;20116;-39
2023/09/04 02:40:31;;;;;;;4.65;3.70;;;14.00;99.90;;;13.83;100.00;98201.22;5012702;28;20028;-38
2023/09/04 02:42:56;;;;;;;4.35;3.75;;;14.00;99.90;;;13.81;100.00;98192.47;5017232;28;20378;-39
2023/09/04 02:45:23;;;;;;;6.50;3.45;;;14.00;99.90;;;13.70;100.00;98185.75;5012894;28;20030;-40
2023/09/04 02:47:48;;;;;;;5.43;3.42;;;14.00;99.90;;;13.79;100.00;98200.47;5011637;28;20036;-38
2023/09/04 02:50:14;;;;;;;4.22;3.60;;;14.00;99.90;;;13.80;100.00;98198.66;5016325;28;20030;-39
2023/09/04 02:52:40;;;;;;;4.97;3.38;;;14.00;99.90;;;13.78;100.00;98196.06;5014868;28;20065;-39
2023/09/04 02:55:07;;;;;;;6.00;3.95;;;14.00;99.90;;;13.67;100.00;98182.38;5016267;28;20041;-40
2023/09/04 02:57:33;;;;;;;4.43;3.40;;;14.00;99.90;;;13.75;100.00;98198.88;5013933;28;20050;-40
2023/09/04 03:00:00;;;;;;;4.93;3.63;;;13.90;99.90;;;13.72;100.00;98199.81;5015514;28;20443;-40
2023/09/04 03:02:26;;;;;;;4.88;3.60;;;13.90;99.90;;;13.70;100.00;98203.47;5012897;28;20068;-38
2023/09/04 03:04:54;;;;;;;4.70;3.95;;;13.90;99.90;;;13.65;100.00;98198.31;5020024;28;20120;-38
2023/09/04 03:07:21;;;;;;;4.00;3.60;;;13.90;99.90;;;13.61;100.00;98203.81;5019214;28;20044;-40
2023/09/04 03:09:47;;;;;;;5.75;3.88;;;13.80;99.90;;;13.56;100.00;98194.22;5018610;28;20064;-39
2023/09/04 03:12:12;;;;;;;6.05;4.05;;;13.80;99.90;;;13.48;100.00;98185.69;5015654;28;20132;-38
2023/09/04 03:14:39;;;;;;;4.90;3.70;;;13.80;99.90;;;13.49;100.00;98197.16;5014524;28;20033;-39
2023/09/04 03:17:05;;;;;;;3.47;3.15;;;13.70;99.90;;;13.46;100.00;98200.78;5015797;28;20140;-39
2023/09/04 03:19:31;;;;;;;4.15;3.50;;;13.70;99.90;;;13.45;100.00;98198.19;5013241;28;20033;-39
2023/09/04 03:21:57;;;;;;;4.18;3.58;;;13.60;99.90;;;13.44;100.00;98197.34;5016202;28;20033;-38
2023/09/04 03:24:23;;;;;;;5.13;3.70;;;13.60;99.90;;;13.43;100.00;98194.72;5019348;28;20034;-40
2023/09/04 03:26:50;;;;;;;4.38;3.45;;;13.60;99.90;;;13.42;100.00;98191.19;5014835;28;20021;-39
2023/09/04 03:29:15;;;;;;;6.22;3.85;;;13.60;99.90;;;13.39;100.00;98191.31;5017787;28;20025;-40
2023/09/04 03:31:41;;;;;;;4.95;3.38;;;13.60;99.90;;;13.35;100.00;98201.16;5017840;28;20353;-40
2023/09/04 03:34:07;;;;;;;4.30;3.55;;;13.60;99.90;;;13.22;100.00;98175.13;5016078;28;20503;-38
2023/09/04 03:36:33;;;;;;;3.95;3.22;;;13.50;99.90;;;13.28;100.00;98198.75;5015064;28;20041;-40
2023/09/04 03:38:59;;;;;;;4.10;3.70;;;13.50;99.90;;;13.25;100.00;98191.78;5017426;28;20036;-41
2023/09/04 03:41:26;;;;;;;4.93;3.70;;;13.50;99.90;;;13.24;100.00;98194.47;5011257;28;20022;-39
2023/09/04 03:43:51;;;;;;;3.63;3.20;;;13.50;99.90;;;13.21;100.00;98195.47;5015972;28;20916;-39
2023/09/04 03:46:17;;;;;;;4.88;3.90;;;13.40;99.90;;;13.20;100.00;98192.84;5007660;28;20034;-40
2023/09/04 03:48:43;;;;;;;4.60;3.65;;;13.40;99.90;;;13.20;100.00;98208.75;5012431;28;20068;-40
2023/09/04 03:51:08;;;;;;;5.55;4.03;;;13.40;99.90;;;13.18;100.00;98200.84;5013884;28;20030;-40
2023/09/04 03:53:35;;;;;;;4.45;3.40;;;13.40;99.90;;;13.16;100.00;98208.00;5015686;28;20135;-38
2023/09/04 03:56:04;;;;;;;5.43;3.78;;;13.40;99.90;;;13.12;100.00;98209.88;5012799;28;20095;-39
2023/09/04 03:58:31;;;;;;;5.45;3.80;;;13.40;99.90;;;13.15;100.00;98216.84;5014741;28;20087;-39
2023/09/04 04:00:57;;;;;;;5.18;3.75;;;13.40;99.90;;;13.12;100.00;98203.72;5016066;28;20032;-40
2023/09/04 04:03:23;;;;;;;5.75;4.15;;;13.30;99.90;;;13.08;100.00;98208.25;5007438;28;20033;-40
2023/09/04 04:05:49;;;;;;;4.90;3.90;;;13.30;99.90;;;13.09;100.00;98209.97;5007850;28;20070;-40
2023/09/04 04:08:15;;;;;;;4.70;3.72;;;13.30;99.90;;;13.08;100.00;98205.63;5014249;28;20025;-38
2023/09/04 04:10:41;;;;;;;5.32;3.90;;;13.30;99.90;;;13.04;100.00;98200.47;5014156;28;20051;-40
2023/09/04 04:13:06;;;;;;;4.65;3.92;;;13.30;99.90;;;12.96;100.00;98196.28;5010695;28;20041;-39
2023/09/04 04:15:32;;;;;;;5.20;3.30;;;13.30;99.90;;;13.06;100.00;98212.72;5017159;28;20048;-39
2023/09/04 04:17:58;;;;;;;5.78;3.78;;;13.30;99.90;;;13.05;100.00;98216.31;5013285;28;20033;-38
2023/09/04 04:20:23;;;;;;;4.57;3.60;;;13.30;99.90;;;13.04;100.00;98230.44;5009399;28;20069;-40
2023/09/04 04:22:49;;;;;;;4.47;3.60;;;13.30;99.90;;;13.03;100.00;98230.50;5012388;28;20021;-39
2023/09/04 04:25:15;;;;;;;5.18;3.78;;;13.20;99.90;;;13.02;100.00;98236.72;5014368;28;20022;-39
2023/09/04 04:27:42;;;;;;;4.97;3.65;;;13.20;99.90;;;12.97;100.00;98231.56;5017001;28;20094;-39
2023/09/04 04:30:10;;;;;;;5.07;3.88;;;13.20;99.90;;;12.97;100.00;98239.50;5012334;28;20022;-38
2023/09/04 04:32:37;;;;;;;4.15;3.70;;;13.20;99.90;;;12.93;100.00;98233.44;5019511;28;20049;-39
2023/09/04 04:35:04;;;;;;;4.70;3.60;;;13.20;99.90;;;12.96;100.00;98233.38;5015938;28;21084;-39
2023/09/04 04:37:29;;;;;;;4.55;3.63;;;13.20;99.90;;;12.87;100.00;98223.09;5015436;28;20124;-41
2023/09/04 04:39:55;;;;;;;4.75;3.58;;;13.20;99.90;;;12.96;100.00;98232.50;5015255;28;20127;-41
2023/09/04 04:42:25;;;;;;;5.22;4.20;;;13.20;99.90;;;12.97;100.00;98236.88;5010078;28;20516;-40
2023/09/04 04:44:50;;;;;;;4.78;4.00;;;13.20;99.90;;;12.98;100.00;98238.63;5010145;28;20163;-38
2023/09/04 04:47:16;;;;;;;5.80;3.80;;;13.30;99.90;;;12.99;100.00;98237.69;5017856;28;20231;-40
2023/09/04 04:49:42;;;;;;;4.65;3.80;;;13.20;99.90;;;12.99;100.00;98235.91;5018138;28;20038;-39
2023/09/04 04:52:07;;;;;;;6.45;4.10;;;13.20;99.90;;;13.02;100.00;98240.22;5011651;28;20029;-38
2023/09/04 04:54:33;;;;;;;6.82;4.35;;;13.20;99.90;;;13.03;100.00;98236.69;5019004;28;20056;-40
2023/09/04 04:56:59;;;;;;;5.18;4.40;;;13.30;99.90;;;13.06;100.00;98230.41;5013627;28;20045;-40
2023/09/04 04:59:25;;;;;;;5.18;4.40;;;13.30;99.90;;;13.06;100.00;98228.63;5012777;28;20030;-41
2023/09/04 05:01:50;;;;;;;5.20;4.03;;;13.30;99.90;;;13.08;100.00;98231.22;5020977;28;20460;-39
2023/09/04 05:04:16;;;;;;;6.05;4.60;;;13.30;99.90;;;13.10;100.00;98232.91;5018744;28;20240;-39
2023/09/04 05:06:42;;;;;;;5.68;4.45;;;13.30;99.90;;;13.13;100.00;98227.47;5012829;28;20033;-39
2023/09/04 05:09:07;;;;;;;4.85;4.28;;;13.40;99.90;;;13.14;100.00;98231.03;5011027;28;20021;-39
2023/09/04 05:11:33;;;;;;;4.63;4.00;;;13.40;99.90;;;13.17;100.00;98230.91;5019053;28;20029;-39
2023/09/04 05:13:59;;;;;;;5.30;4.32;;;13.40;99.90;;;13.21;100.00;98231.66;5021941;28;20033;-40
2023/09/04 05:16:26;;;;;;;5.45;4.10;;;13.40;99.90;;;13.23;100.00;98232.50;5015919;28;20064;-39
2023/09/04 05:18:53;;;;;;;5.85;3.95;;;13.40;99.90;;;13.23;100.00;98225.41;5020601;28;20492;-40
2023/09/04 05:21:20;;;;;;;7.68;3.50;;;13.50;99.90;;;13.26;100.00;98225.31;5013701;28;20056;-40
2023/09/04 05:23:47;;;;;;;5.60;4.10;;;13.50;99.90;;;13.30;100.00;98223.41;5014824;28;20034;-39
2023/09/04 05:26:13;;;;;;;7.15;4.57;;;13.50;99.90;;;13.29;100.00;98225.19;5012610;28;20030;-40
2023/09/04 05:28:39;;;;;;;7.13;4.15;;;13.50;99.90;;;13.32;100.00;98226.91;5019511;28;20033;-38
2023/09/04 05:31:04;;;;;;;5.55;4.13;;;13.50;99.90;;;13.35;100.00;98227.66;5018887;28;20036;-42
2023/09/04 05:33:30;;;;;;;6.38;4.13;;;13.60;99.90;;;13.40;100.00;98221.34;5018414;28;20063;-40
2023/09/04 05:35:56;;;;;;;5.43;3.97;;;13.60;99.90;;;13.35;100.00;98197.63;5019523;28;20416;-39
2023/09/04 05:38:22;;;;;;;6.82;4.20;;;13.70;99.90;;;13.51;100.00;98214.75;5015791;28;20439;-40
2023/09/04 05:40:52;;;;;;;5.63;4.05;;;13.70;99.90;;;13.56;100.00;98219.84;5011375;28;20891;-40
2023/09/04 05:43:18;;;;;;;5.60;4.38;;;13.80;99.90;;;13.59;100.00;98209.16;5010765;28;20033;-40
2023/09/04 05:45:43;;;;;;;5.45;4.00;;;13.90;99.90;;;13.67;100.00;98217.69;5011268;28;20095;-40
2023/09/04 05:48:09;;;;;;;5.15;4.25;;;13.90;99.90;;;13.73;100.00;98214.81;5004076;28;20037;-45
2023/09/04 05:50:35;;;;;;;7.53;4.55;;;14.00;99.90;;;13.79;100.00;98210.22;5010068;28;20044;-42
2023/09/04 05:53:00;;;;;;;4.93;4.05;;;14.00;99.90;;;13.87;100.00;98210.78;5011380;28;20432;-42
2023/09/04 05:55:26;;;;;;;5.00;4.25;;;14.10;99.90;;;13.92;100.00;98209.69;5007392;28;20048;-40
2023/09/04 05:57:52;;;;;;;7.72;4.45;;;14.20;99.90;;;13.99;100.00;98207.66;5008789;28;20560;-42
2023/09/04 06:00:17;;;;;;;6.47;4.00;;;14.30;99.90;;;14.06;100.00;98208.31;5000921;28;20037;-39
2023/09/04 06:02:43;;;;;;;5.75;3.90;;;14.30;99.90;;;14.10;100.00;98210.81;5009404;28;20121;-39
2023/09/04 06:05:09;;;;;;;6.28;4.38;;;14.40;99.90;;;14.15;100.00;98207.94;5003920;28;20386;-40
2023/09/04 06:07:35;;;;;;;5.57;4.60;;;14.40;99.90;;;14.21;100.00;98218.34;4997904;28;20426;-38
2023/09/04 06:10:03;;;;;;;5.28;4.05;;;14.50;99.90;;;14.29;100.00;98218.03;5006230;28;20029;-40
2023/09/04 06:12:29;;;;;;;6.60;4.25;;;14.50;99.90;;;14.30;100.00;98215.34;5011215;28;20038;-41
2023/09/04 06:14:54;;;;;;;6.68;4.13;;;14.60;99.90;;;14.46;100.00;98220.91;5017203;28;20055;-42
2023/09/04 06:17:20;;;;;;;6.38;4.10;;;14.80;99.90;;;14.59;100.00;98225.72;5017835;28;20497;-39
2023/09/04 06:19:46;;;;;;;6.13;4.35;;;14.80;99.90;;;14.70;100.00;98223.53;5012565;28;20117;-40
2023/09/04 06:22:11;;;;;;;8.80;5.40;;;15.00;99.90;;;14.75;100.00;98221.56;5013474;28;20041;-41
2023/09/04 06:24:37;;;;;;;5.93;5.07;;;15.00;99.90;;;14.83;100.00;98208.81;5008139;28;20021;-42
2023/09/04 06:27:04;;;;;;;5.78;4.90;;;15.10;99.90;;;14.95;100.00;98211.88;5007091;28;20525;-43
2023/09/04 06:29:30;;;;;;;8.10;5.13;;;15.20;99.90;;;15.01;100.00;98212.50;5010453;28;20033;-40
2023/09/04 06:31:55;;;;;;;7.20;5.40;;;15.30;99.90;;;15.10;100.00;98211.25;5006966;28;20194;-43
2023/09/04 06:34:21;;;;;;;7.63;4.80;;;15.40;99.90;;;15.17;100.00;98222.50;5016085;28;20092;-40
2023/09/04 06:36:47;;;;;;;5.18;4.13;;;15.40;99.90;;;15.26;100.00;98216.78;5013794;28;20041;-40
2023/09/04 06:39:13;;;;;;;5.93;4.53;;;15.50;99.90;;;15.33;100.00;98222.72;5010148;28;20382;-40
2023/09/04 06:41:38;;;;;;;8.57;5.00;;;15.60;99.90;;;15.41;100.00;98223.22;5012996;28;20075;-41
2023/09/04 06:44:04;;;;;;;6.57;4.40;;;15.70;99.90;;;15.50;100.00;98225.47;5012673;28;20036;-41
2023/09/04 06:46:30;;;;;;;7.22;4.82;;;15.80;99.90;;;15.52;100.00;98212.97;5006242;28;20256;-41
2023/09/04 06:48:55;;;;;;;7.20;4.43;;;15.80;99.90;;;15.64;100.00;98217.75;5016739;28;20032;-41
2023/09/04 06:51:21;;;;;;;5.70;4.60;;;15.90;99.90;;;15.74;100.00;98220.00;5007826;28;20549;-41
2023/09/04 06:53:47;;;;;;;9.95;4.53;;;16.00;99.90;;;15.79;100.00;98210.94;5017269;28;20090;-42
2023/09/04 06:56:13;;;;;;;5.20;4.03;;;16.10;99.90;;;15.93;100.00;98212.09;5006113;28;20684;-43
2023/09/04 06:58:39;;;;;;;5.60;4.15;;;16.20;99.90;;;15.98;100.00;98208.28;5013844;28;20198;-38
2023/09/04 07:01:05;;;;;;;6.03;3.78;;;16.30;99.90;;;16.10;100.00;98219.31;5008214;28;20041;-37
2023/09/04 07:03:31;;;;;;;6.03;4.40;;;16.40;99.90;;;16.17;100.00;98204.78;5016743;28;20037;-40
2023/09/04 07:05:57;;;;;;;5.20;3.90;;;16.50;99.90;;;16.25;100.00;98213.25;5011406;28;20487;-38
2023/09/04 07:08:23;;;;;;;5.40;4.07;;;16.50;99.90;;;16.33;100.00;98211.13;5014504;28;20029;-39
2023/09/04 07:10:49;;;;;;;4.25;3.50;;;16.60;99.90;;;16.41;100.00;98214.25;4996556;28;20943;-39
2023/09/04 07:13:15;;;;;;;5.07;3.40;;;16.70;99.90;;;16.51;100.00;98211.16;5018129;28;20061;-38
2023/09/04 07:15:41;;;;;;;8.52;4.32;;;16.70;99.90;;;16.55;100.00;98213.59;5012529;28;20037;-38
2023/09/04 07:18:08;;;;;;;6.25;4.50;;;16.80;99.90;;;16.65;100.00;98213.16;5008927;28;20076;-38
2023/09/04 07:20:33;;;;;;;4.70;4.00;;;16.90;99.90;;;16.74;100.00;98210.91;5013900;28;20038;-38
2023/09/04 07:22:59;;;;;;;6.32;3.50;;;17.00;99.90;;;16.84;100.00;98215.81;5013310;28;20042;-40
2023/09/04 07:25:25;;;;;;;4.38;3.55;;;17.10;99.90;;;16.93;100.00;98212.69;5006235;28;20029;-37
2023/09/04 07:27:51;;;;;;;5.45;4.10;;;17.20;99.90;;;17.04;100.00;98212.16;5022984;28;20550;-39
2023/09/04 07:30:17;;;;;;;7.00;3.63;;;17.20;99.90;;;17.17;100.00;98208.81;5021773;28;20029;-37
2023/09/04 07:32:43;;;;;;;5.10;3.63;;;17.40;99.90;;;17.33;100.00;98216.84;5020596;28;20390;-39
2023/09/04 07:35:10;;;;;;;7.75;4.05;;;17.50;99.90;;;17.48;100.00;98217.88;5016521;28;20492;-38
2023/09/04 07:37:35;;;;;;;5.75;3.92;;;17.70;99.90;;;17.63;100.00;98216.22;5012358;28;20137;-37
2023/09/04 07:40:03;;;;;;;6.78;4.20;;;17.80;99.90;;;17.74;100.00;98221.84;5018016;28;20417;-37
2023/09/04 07:42:29;;;;;;;4.72;3.78;;;17.90;99.90;;;17.89;100.00;98211.31;5017070;28;20037;-37
2023/09/04 07:44:55;;;;;;;7.85;3.83;;;18.00;99.90;;;18.02;100.00;98214.22;5021880;28;20033;-37
2023/09/04 07:47:21;;;;;;;5.07;4.10;;;18.20;99.90;;;18.12;100.00;98212.75;5019174;28;20985;-38
2023/09/04 07:49:46;;;;;;;7.03;4.03;;;18.30;99.90;;;18.24;100.00;98219.25;5025045;28;20034;-38
2023/09/04 07:52:12;;;;;;;5.93;4.20;;;18.30;99.90;;;18.33;100.00;98221.41;5026069;28;20048;-39
2023/09/04 07:54:38;;;;;;;6.53;3.80;;;18.50;99.90;;;18.41;100.00;98224.50;5013529;28;20433;-38
2023/09/04 07:57:05;;;;;;;6.05;4.05;;;18.60;99.90;;;18.55;100.00;98222.88;5000845;28;20166;-38
2023/09/04 07:59:31;;;;;;;6.47;3.83;;;18.70;99.90;;;18.66;100.00;98220.44;5005901;28;20125;-38
2023/09/04 08:01:57;;;;;;;4.15;3.30;;;18.70;99.90;;;18.78;100.00;98218.88;4997990;28;20469;-39
2023/09/04 08:04:22;;;;;;;5.00;3.55;;;18.90;99.90;;;18.88;100.00;98215.63;5014575;28;20096;-40
2023/09/04 08:06:48;;;;;;;4.20;3.50;;;19.00;99.90;;;19.00;100.00;98203.34;5022443;28;20287;-38
2023/09/04 08:09:14;;;;;;;6.70;3.83;;;19.10;99.90;;;19.14;100.00;98215.06;5018880;28;20041;-38
2023/09/04 08:11:39;;;;;;;5.50;3.50;;;19.20;99.90;;;19.22;100.00;98207.44;5017317;28;20033;-38
2023/09/04 08:14:05;;;;;;;5.57;3.55;;;19.30;99.90;;;19.40;100.00;98219.72;5015912;28;20233;-38
2023/09/04 08:16:31;;;;;;;10.25;3.85;;;19.40;99.90;;;19.48;100.00;98218.41;5011280;28;20045;-40
2023/09/04 08:18:57;;;;;;;5.00;3.55;;;19.50;99.90;;;19.61;100.00;98219.38;5019364;28;20112;-39
2023/09/04 08:21:23;;;;;;;4.32;3.30;;;19.60;99.90;;;19.73;100.00;98220.47;5019543;28;21156;-38
2023/09/04 08:23:49;;;;;;;5.45;3.33;;;19.70;99.90;;;19.86;100.00;98217.91;5020305;28;20477;-39
2023/09/04 08:26:15;;;;;;;4.38;3.40;;;19.90;99.90;;;20.01;100.00;98225.88;5016396;28;20059;-40
2023/09/04 08:28:41;;;;;;;5.57;3.47;;;20.00;99.90;;;20.13;100.00;98223.38;5015975;28;20033;-38
2023/09/04 08:31:10;;;;;;;7.15;4.18;;;20.10;99.90;;;20.12;100.00;98210.94;5016620;28;20029;-40
2023/09/04 08:33:36;;;;;;;5.57;3.40;;;20.10;99.90;;;20.28;100.00;98221.53;5004336;28;20030;-38
2023/09/04 08:36:02;;;;;;;3.97;3.38;;;20.30;99.90;;;20.36;100.00;98214.72;5009765;28;20034;-38
2023/09/04 08:38:28;;;;;;;5.00;3.53;;;20.30;99.90;;;20.52;100.00;98217.28;5013262;28;20025;-40
2023/09/04 08:41:05;;;;;;;7.30;3.50;;;20.50;99.90;;;20.60;100.00;98214.09;5013945;28;21050;-40
2023/09/04 08:43:31;;;;;;;4.85;3.45;;;20.60;99.90;;;20.69;100.00;98218.91;5004096;28;20571;-43
2023/09/04 08:46:02;;;;;;;5.93;3.45;;;20.70;99.90;;;20.75;100.00;98223.00;5007023;28;20028;-40
2023/09/04 08:48:30;;;;;;;6.20;3.45;;;20.70;99.90;;;20.84;100.00;98214.38;5009231;28;20033;-38
2023/09/04 08:50:56;;;;;;;6.32;3.40;;;20.80;99.90;;;20.89;100.00;98220.28;5017249;28;20048;-38
2023/09/04 08:53:22;;;;;;;7.82;3.58;;;20.90;99.90;;;20.97;100.00;98214.41;5025342;28;20577;-37
2023/09/04 08:55:50;;;;;;;7.80;3.42;;;20.90;99.90;;;21.08;100.00;98211.84;5002896;28;20122;-40
2023/09/04 08:58:16;;;;;;;6.72;3.50;;;21.00;99.90;;;21.15;98.58;98212.31;5007218;28;20033;-39
2023/09/04 09:00:45;;;;;;;4.13;3.10;;;21.10;99.90;;;21.27;100.00;98216.00;4982897;28;20144;-38
2023/09/04 09:03:11;;;;;;;8.52;3.20;;;21.20;99.90;;;21.36;95.96;98210.00;4998125;28;20160;-39
2023/09/04 09:05:37;;;;;;;6.43;3.20;;;21.30;99.90;;;21.44;97.20;98212.16;5029043;28;20061;-39
2023/09/04 09:08:05;;;;;;;6.00;3.53;;;21.40;99.90;;;21.53;93.29;98216.94;5012196;28;20036;-40
2023/09/04 09:10:31;;;;;;;5.72;3.10;;;21.50;99.90;;;21.57;87.89;98197.00;5013150;28;20458;-39
2023/09/04 09:12:57;;;;;;;5.10;2.90;;;21.60;99.90;;;21.63;88.82;98190.31;5002518;28;20450;-39
2023/09/04 09:15:23;;;;;;;4.95;3.35;;;21.70;99.90;;;21.79;89.28;98207.06;4996386;28;20042;-39
2023/09/04 09:17:57;;;;;;;4.47;3.35;;;21.70;99.90;;;21.89;81.54;98205.47;4997081;28;20083;-41
2023/09/04 09:20:44;;;;;;;3.70;3.33;;;21.80;99.90;;;21.88;76.98;98198.38;5008002;28;20442;-39
2023/09/04 09:23:10;;;;;;;4.93;2.85;;;21.90;99.90;;;21.95;81.87;98197.94;5009783;28;20057;-41
2023/09/04 09:25:37;;;;;;;3.00;2.45;;;21.90;99.90;;;22.14;84.13;98200.19;5017357;28;20384;-41
2023/09/04 09:28:06;;;;;;;4.90;3.30;;;22.00;99.90;;;22.16;77.29;98203.59;5008583;28;20138;-40
2023/09/04 09:30:40;;;;;;;3.28;2.92;;;22.10;99.90;;;22.16;72.43;98199.09;5008452;28;20453;-40
2023/09/04 09:33:12;;;;;;;3.60;2.78;;;22.20;99.90;;;22.22;75.84;98192.44;5003264;28;20037;-40
2023/09/04 09:35:42;;;;;;;3.45;2.80;;;22.20;99.90;;;22.20;74.86;98175.53;4998941;28;20021;-41
2023/09/04 09:38:08;;;;;;;4.03;2.80;;;22.20;99.90;;;22.34;68.29;98194.25;5004358;28;20116;-41
2023/09/04 09:40:34;;;;;;;3.00;2.50;;;22.30;99.90;;;22.44;73.50;98202.50;5000255;28;20033;-43
2023/09/04 09:43:00;;;;;;;3.08;2.75;;;22.40;99.90;;;22.45;70.29;98196.16;5026003;28;20048;-40
2023/09/04 09:45:36;;;;;;;3.22;2.75;;;22.40;99.90;;;22.48;73.08;98191.41;5028552;28;20550;-40
2023/09/04 09:48:06;;;;;;;3.40;2.90;;;22.40;99.90;;;22.60;73.21;98195.03;5018861;28;20030;-40
2023/09/04 09:50:32;;;;;;;3.22;2.92;;;22.50;99.90;;;22.73;71.69;98191.44;5020598;28;20037;-39
2023/09/04 09:53:00;;;;;;;3.70;2.95;;;22.60;99.90;;;22.76;63.65;98191.22;5023628;28;20029;-41
2023/09/04 09:55:29;;;;;;;3.58;2.80;;;22.70;99.90;;;22.77;65.84;98182.19;5018126;28;20033;-41
2023/09/04 09:57:58;;;;;;;5.07;2.80;;;22.70;99.90;;;22.76;63.41;98180.47;5010659;28;20028;-40
2023/09/04 10:00:25;;;;;;;4.63;2.95;;;22.70;99.90;;;22.76;61.87;98177.78;5027209;28;20037;-39
2023/09/04 10:02:52;;;;;;;3.30;2.70;;;22.70;99.90;;;22.80;60.73;98176.56;5001311;28;20029;-38
2023/09/04 10:05:22;;;;;;;4.15;2.80;;;22.80;99.90;;;22.84;61.21;98178.06;5014622;28;20171;-39
2023/09/04 10:07:53;;;;;;;3.40;2.80;;;22.80;99.90;;;22.87;62.53;98172.47;5049167;28;20026;-39
2023/09/04 10:10:19;;;;;;;4.93;2.67;;;22.80;99.90;;;22.88;61.20;98179.56;5018219;28;20962;-40